Time;durP1;ratioP1;P1;durP2;ratioP2;P2;SDS_P1;SDS_P2;PMS_P1;PMS_P2;Temp;Humidity;BMP_temperature;BMP_pressure;BME280_temperature;BME280_humidity;BME280_pressure;Samples;Min_cycle;Max_cycle;Signal;HPM_P1;HPM_P2
2022/11/16 00:01:23;;;;;;;1.23;1.23;;;;;;;9.18;85.35;94217.47;4388663;32;20228;-57
2022/11/16 00:03:50;;;;;;;1.37;1.37;;;;;;;9.12;85.59;94224.00;4337571;32;20246;-56
2022/11/16 00:06:16;;;;;;;2.03;1.83;;;;;;;9.22;85.48;94221.03;4372157;32;20232;-58
2022/11/16 00:11:42;;;;;;;2.23;2.03;;;;;;;9.13;84.87;94196.47;4359846;32;20278;-56
2022/11/16 00:14:08;;;;;;;2.40;1.80;;;;;;;8.99;85.19;94185.25;4374365;32;20188;-55
2022/11/16 00:16:35;;;;;;;1.60;1.37;;;;;;;8.95;85.23;94170.00;4366655;32;20234;-58
2022/11/16 00:19:03;;;;;;;1.63;1.53;;;;;;;9.03;84.91;94167.66;4350404;32;20220;-58
2022/11/16 00:21:29;;;;;;;2.73;2.37;;;;;;;8.79;85.27;94162.84;4336465;32;20231;-64
2022/11/16 00:23:57;;;;;;;1.43;1.33;;;;;;;8.74;85.68;94161.09;4367617;32;20346;-58
2022/11/16 00:26:25;;;;;;;1.57;1.47;;;;;;;8.71;85.59;94167.03;4373562;32;20290;-57
2022/11/16 00:28:52;;;;;;;3.37;1.50;;;;;;;8.57;86.06;94161.09;4376271;32;20340;-57
2022/11/16 00:31:21;;;;;;;2.53;1.80;;;;;;;8.74;85.56;94165.63;4375558;32;20188;-56
2022/11/16 00:33:48;;;;;;;1.00;1.00;;;;;;;8.71;85.44;94172.34;4356884;32;20312;-57
2022/11/16 00:36:14;;;;;;;1.30;1.30;;;;;;;8.70;85.73;94173.41;4356778;32;20352;-55
2022/11/16 00:38:40;;;;;;;0.97;0.97;;;;;;;8.81;85.42;94181.81;4368482;32;20291;-54
2022/11/16 00:41:07;;;;;;;3.60;1.57;;;;;;;8.73;85.62;94186.00;4368292;32;20280;-55
2022/11/16 00:43:35;;;;;;;1.37;1.37;;;;;;;8.73;85.60;94186.00;4384849;32;20189;-57
2022/11/16 00:46:00;;;;;;;2.03;1.93;;;;;;;8.78;85.64;94183.22;4362585;32;20310;-56
2022/11/16 00:48:26;;;;;;;1.20;1.10;;;;;;;8.78;85.48;94182.44;4372958;32;20285;-57
2022/11/16 00:50:53;;;;;;;1.13;1.13;;;;;;;8.68;86.02;94185.37;4374355;32;20292;-57
2022/11/16 00:53:19;;;;;;;2.23;2.13;;;;;;;8.64;85.98;94184.44;4378390;32;20188;-55
2022/11/16 00:55:46;;;;;;;2.07;1.80;;;;;;;8.71;85.83;94188.19;4354482;32;20297;-57
2022/11/16 00:58:14;;;;;;;1.00;1.00;;;;;;;8.83;85.01;94190.22;4359673;32;20172;-57
2022/11/16 01:00:41;;;;;;;1.93;1.73;;;;;;;8.79;85.16;94192.69;4374405;32;20325;-57
2022/11/16 01:03:07;;;;;;;1.30;1.30;;;;;;;8.74;85.54;94189.41;4369326;32;20366;-57
2022/11/16 01:05:33;;;;;;;1.23;1.23;;;;;;;8.71;85.70;94198.78;4361539;32;20281;-56
2022/11/16 01:08:00;;;;;;;1.60;1.53;;;;;;;8.64;85.98;94193.16;4363878;32;20189;-59
2022/11/16 01:10:28;;;;;;;1.53;1.53;;;;;;;8.72;85.53;94196.91;4372368;32;20263;-58
2022/11/16 01:12:56;;;;;;;1.50;1.40;;;;;;;8.84;85.08;94192.56;4343637;32;20292;-56
2022/11/16 01:15:25;;;;;;;2.13;1.47;;;;;;;8.74;85.41;94192.84;4358769;32;20240;-57
2022/11/16 01:17:53;;;;;;;1.90;1.80;;;;;;;8.67;85.49;94189.91;4356299;32;20176;-58
2022/11/16 01:20:22;;;;;;;1.60;1.57;;;;;;;8.85;85.02;94172.97;4388378;32;20194;-58
2022/11/16 01:22:47;;;;;;;2.27;2.17;;;;;;;8.93;84.63;94168.78;4382114;32;20289;-55
2022/11/16 01:25:14;;;;;;;1.07;1.07;;;;;;;8.98;84.22;94165.16;4371934;32;20295;-56
2022/11/16 01:27:40;;;;;;;0.97;0.97;;;;;;;8.89;84.42;94160.69;4348749;32;20197;-56
2022/11/16 01:30:10;;;;;;;1.30;1.20;;;;;;;9.15;83.47;94158.00;4364642;32;20265;-57
2022/11/16 01:32:37;;;;;;;1.60;1.57;;;;;;;9.12;83.52;94149.94;4347786;32;20271;-56
2022/11/16 01:35:04;;;;;;;2.57;2.30;;;;;;;9.24;82.88;94145.56;4374756;32;20303;-55
2022/11/16 01:37:31;;;;;;;2.73;1.67;;;;;;;9.01;83.83;94138.09;4363740;32;20247;-55
2022/11/16 01:39:59;;;;;;;1.93;1.73;;;;;;;9.07;83.81;94137.63;4357280;32;20342;-57
2022/11/16 01:42:30;;;;;;;1.17;1.17;;;;;;;9.02;84.27;94139.66;4356947;32;20341;-53
2022/11/16 01:45:05;;;;;;;1.10;1.10;;;;;;;9.06;84.02;94135.31;4358640;32;20284;-55
2022/11/16 01:47:36;;;;;;;1.37;1.37;;;;;;;9.01;83.94;94146.03;4303876;32;20225;-56
2022/11/16 01:50:09;;;;;;;1.50;1.50;;;;;;;9.06;83.82;94140.59;4383764;32;20239;-55
2022/11/16 01:52:42;;;;;;;1.00;1.00;;;;;;;8.85;84.62;94141.22;4331652;32;20265;-56
2022/11/16 01:55:08;;;;;;;1.07;1.07;;;;;;;9.00;84.33;94131.25;4349316;32;20199;-57
2022/11/16 01:57:38;;;;;;;1.73;1.63;;;;;;;9.22;83.51;94133.72;4364894;32;20188;-56
2022/11/16 02:00:09;;;;;;;1.63;1.53;;;;;;;9.25;83.31;94127.81;4359020;32;20278;-57
2022/11/16 02:02:34;;;;;;;2.13;2.03;;;;;;;9.03;84.15;94143.84;4379192;32;20201;-55
2022/11/16 02:05:02;;;;;;;1.33;1.23;;;;;;;9.10;84.20;94136.25;4342045;32;20269;-59
2022/11/16 02:11:23;;;;;;;1.40;1.40;;;;;;;9.11;84.26;94130.63;4311464;32;20292;-54
2022/11/16 02:14:18;;;;;;;1.47;1.47;;;;;;;9.11;83.92;94137.81;4359754;32;20483;-57
2022/11/16 02:17:06;;;;;;;1.10;1.10;;;;;;;9.28;83.12;94132.47;4371728;32;20203;-57
2022/11/16 02:19:57;;;;;;;2.40;2.20;;;;;;;9.14;83.75;94137.19;4379566;32;20196;-57
2022/11/16 02:22:42;;;;;;;2.67;2.23;;;;;;;9.07;83.63;94126.28;4363803;32;20181;-57
2022/11/16 02:25:29;;;;;;;1.53;1.43;;;;;;;8.90;84.49;94127.84;4347928;32;20189;-58
2022/11/16 02:28:24;;;;;;;1.57;1.47;;;;;;;8.88;85.20;94126.59;4372294;32;20297;-57
2022/11/16 02:30:55;;;;;;;1.27;1.27;;;;;;;8.88;85.36;94124.75;4352403;32;20291;-57
2022/11/16 02:33:26;;;;;;;1.50;1.50;;;;;;;8.90;85.61;94133.16;4362323;32;20360;-56
2022/11/16 02:35:59;;;;;;;6.93;1.90;;;;;;;8.86;85.71;94126.91;4359392;32;20186;-57
2022/11/16 02:38:34;;;;;;;2.57;1.73;;;;;;;8.96;85.46;94118.66;4336727;32;20222;-58
2022/11/16 02:41:06;;;;;;;1.50;1.50;;;;;;;8.83;86.04;94134.69;4372481;32;20276;-57
2022/11/16 02:43:59;;;;;;;1.23;1.23;;;;;;;8.80;86.57;94138.72;4337514;32;20278;-56
2022/11/16 02:46:36;;;;;;;1.50;1.50;;;;;;;8.81;86.98;94132.34;4343668;32;20203;-55
2022/11/16 02:49:05;;;;;;;1.90;1.50;;;;;;;8.71;87.78;94123.97;4363220;32;20285;-61
2022/11/16 02:51:35;;;;;;;2.23;2.13;;;;;;;8.61;88.63;94114.47;4338245;32;20273;-61
2022/11/16 02:54:24;;;;;;;2.03;1.93;;;;;;;8.43;89.75;94103.09;4353147;32;20303;-61
2022/11/16 02:56:49;;;;;;;1.57;1.57;;;;;;;8.24;91.34;94116.56;4373024;32;20371;-61
2022/11/16 02:59:16;;;;;;;2.70;2.60;;;;;;;8.16;91.82;94119.94;4350531;32;20323;-61
2022/11/16 03:02:00;;;;;;;2.03;1.50;;;;;;;8.16;92.24;94119.16;4344140;32;20219;-61
2022/11/16 03:04:34;;;;;;;3.00;2.83;;;;;;;8.26;91.82;94117.03;4321515;32;20294;-61
2022/11/16 03:07:04;;;;;;;2.07;1.97;;;;;;;8.10;92.32;94109.84;4315680;32;20300;-61
2022/11/16 03:09:33;;;;;;;2.73;2.63;;;;;;;8.21;92.49;94106.59;4346130;32;20290;-61
2022/11/16 03:12:04;;;;;;;2.67;2.47;;;;;;;8.22;92.62;94110.81;4356901;32;20319;-61
2022/11/16 03:14:37;;;;;;;3.73;2.43;;;;;;;8.33;91.95;94129.03;4350140;32;20301;-62
2022/11/16 03:17:06;;;;;;;2.07;1.97;;;;;;;8.54;91.03;94127.34;4346964;32;20297;-61
2022/11/16 03:20:19;;;;;;;2.23;2.13;;;;;;;8.52;90.82;94132.19;4348813;32;20302;-61
2022/11/16 03:22:48;;;;;;;2.00;1.93;;;;;;;8.60;90.17;94128.75;4342959;32;20303;-61
2022/11/16 03:25:16;;;;;;;2.00;1.83;;;;;;;8.38;90.65;94131.53;4348119;32;20316;-61
2022/11/16 03:27:53;;;;;;;3.67;2.97;;;;;;;8.51;90.69;94128.00;4355636;32;20269;-61
2022/11/16 03:30:21;;;;;;;2.30;2.20;;;;;;;8.40;90.69;94121.44;4352210;32;20299;-61
2022/11/16 03:33:34;;;;;;;2.17;2.07;;;;;;;8.59;90.06;94127.19;4335638;32;20294;-61
2022/11/16 03:36:13;;;;;;;1.50;1.50;;;;;;;8.66;89.57;94122.25;4358841;32;20277;-61
2022/11/16 03:38:41;;;;;;;2.27;2.17;;;;;;;8.63;89.53;94119.44;4346905;32;20281;-61
2022/11/16 03:41:09;;;;;;;2.53;2.43;;;;;;;8.53;90.03;94125.78;4342672;32;20274;-61
2022/11/16 03:43:39;;;;;;;2.60;2.50;;;;;;;8.62;89.67;94131.87;4341990;32;20293;-61
2022/11/16 03:46:05;;;;;;;2.50;2.37;;;;;;;8.67;89.55;94139.66;4339023;32;20270;-61
2022/11/16 03:48:37;;;;;;;2.70;2.57;;;;;;;8.73;88.77;94141.03;4349496;32;20339;-61
2022/11/16 03:51:07;;;;;;;2.47;2.33;;;;;;;8.58;89.58;94157.38;4341522;32;20269;-61
2022/11/16 03:53:35;;;;;;;2.63;2.00;;;;;;;8.52;89.71;94164.66;4338051;32;20282;-61
2022/11/16 03:56:01;;;;;;;2.70;2.50;;;;;;;8.35;90.60;94167.28;4368565;32;20281;-61
2022/11/16 03:58:26;;;;;;;2.57;2.47;;;;;;;8.54;90.21;94174.94;4359376;32;20295;-61
2022/11/16 04:00:53;;;;;;;3.83;3.23;;;;;;;8.35;91.32;94171.78;4364504;32;20189;-62
2022/11/16 04:03:20;;;;;;;2.83;2.60;;;;;;;8.32;92.08;94180.28;4337081;32;20189;-61
2022/11/16 04:25:17;;;;;;;1.70;1.70;;;;;;;8.33;94.50;94203.00;4373451;32;20311;-61
2022/11/16 04:37:47;;;;;;;3.17;3.07;;;;;;;8.46;93.41;94204.78;4363269;32;20336;-61
2022/11/16 04:38:43;;;;;;;2.33;2.27;;;;;;;8.45;93.86;94211.13;4379060;32;20287;-61
2022/11/16 04:42:13;;;;;;;6.23;3.27;;;;;;;8.38;94.25;94221.38;4375578;32;20290;-61
2022/11/16 04:43:58;;;;;;;1.70;1.60;;;;;;;8.38;94.58;94222.16;4358647;32;20285;-61
2022/11/16 04:49:08;;;;;;;2.63;2.43;;;;;;;8.27;94.90;94218.22;4356247;32;20326;-61
2022/11/16 04:51:37;;;;;;;1.43;1.43;;;;;;;8.19;94.95;94219.72;4365571;32;20322;-61
2022/11/16 04:54:03;;;;;;;2.63;2.53;;;;;;;8.29;95.17;94221.31;4359758;32;20331;-61
2022/11/16 04:56:28;;;;;;;1.93;1.87;;;;;;;8.24;95.02;94230.16;4372796;32;20364;-61
2022/11/16 04:58:55;;;;;;;2.63;2.43;;;;;;;8.31;94.78;94228.94;4354108;32;20230;-61
2022/11/16 05:02:06;;;;;;;3.57;3.03;;;;;;;8.17;95.21;94226.38;4355215;32;20264;-61
2022/11/16 05:04:09;;;;;;;2.63;2.53;;;;;;;8.13;95.47;94226.22;4376063;32;20276;-62
2022/11/16 05:06:35;;;;;;;3.53;3.23;;;;;;;8.10;95.47;94234.78;4382652;32;20273;-61
2022/11/16 05:09:01;;;;;;;7.00;2.73;;;;;;;8.06;95.75;94231.19;4378690;32;20299;-62
2022/11/16 05:11:27;;;;;;;2.70;2.53;;;;;;;8.13;95.51;94236.00;4379265;32;20197;-61
2022/11/16 05:13:53;;;;;;;2.47;2.37;;;;;;;8.02;96.35;94234.72;4370782;32;20269;-61
2022/11/16 05:16:18;;;;;;;3.00;2.73;;;;;;;8.06;96.88;94231.19;4360330;32;20188;-62
2022/11/16 05:18:43;;;;;;;2.33;2.23;;;;;;;8.20;96.40;94231.06;4371969;32;20181;-61
2022/11/16 05:21:13;;;;;;;2.70;2.50;;;;;;;8.21;96.14;94243.97;4348336;32;20203;-61
2022/11/16 05:24:40;;;;;;;2.70;2.60;;;;;;;8.26;95.90;94240.44;4368063;32;20290;-62
2022/11/16 05:26:34;;;;;;;3.07;2.87;;;;;;;8.34;96.06;94237.06;4356050;32;20284;-62
2022/11/16 05:28:59;;;;;;;2.60;2.40;;;;;;;8.14;97.12;94242.84;4361730;32;20280;-61
2022/11/16 05:31:25;;;;;;;1.70;1.60;;;;;;;8.33;96.44;94255.84;4341624;32;20205;-62
2022/11/16 05:33:50;;;;;;;2.70;2.57;;;;;;;8.11;97.00;94246.87;4366709;32;20226;-61
2022/11/16 05:36:17;;;;;;;2.47;2.27;;;;;;;8.16;97.59;94246.75;4377856;32;20311;-61
2022/11/16 05:38:42;;;;;;;2.37;2.17;;;;;;;8.11;98.08;94252.16;4364214;32;20201;-61
2022/11/16 05:41:09;;;;;;;3.83;2.73;;;;;;;8.02;98.81;94254.00;4363572;32;20287;-62
2022/11/16 05:43:34;;;;;;;2.17;2.00;;;;;;;8.16;98.97;94254.66;4380346;32;20277;-61
2022/11/16 05:46:00;;;;;;;2.73;2.63;;;;;;;8.18;98.78;94247.22;4361501;32;20189;-61
2022/11/16 05:48:25;;;;;;;2.43;2.33;;;;;;;8.17;99.41;94252.81;4375177;32;20196;-62
2022/11/16 05:50:57;;;;;;;2.53;2.43;;;;;;;8.17;99.33;94253.59;4369617;32;20332;-61
2022/11/16 05:53:24;;;;;;;2.23;2.13;;;;;;;8.14;99.53;94253.41;4367605;32;20206;-60
2022/11/16 05:55:50;;;;;;;1.87;1.60;;;;;;;8.10;100.00;94255.91;4362604;32;20292;-62
2022/11/16 05:58:15;;;;;;;2.27;2.17;;;;;;;8.14;100.00;94253.41;4362088;32;20273;-61
2022/11/16 06:00:44;;;;;;;2.13;2.03;;;;;;;8.16;99.91;94257.31;4364980;32;20311;-61
2022/11/16 06:03:11;;;;;;;2.07;1.97;;;;;;;8.11;100.00;94260.06;4386599;32;20180;-60
2022/11/16 06:05:36;;;;;;;3.17;2.40;;;;;;;8.14;100.00;94256.81;4382387;32;20387;-61
2022/11/16 06:08:01;;;;;;;1.70;1.63;;;;;;;8.14;100.00;94253.41;4361565;32;20326;-61
2022/11/16 06:10:27;;;;;;;2.17;2.00;;;;;;;8.26;100.00;94257.06;4382817;32;20185;-61
2022/11/16 06:12:54;;;;;;;2.17;2.07;;;;;;;8.38;100.00;94258.34;4372327;32;20207;-61
2022/11/16 06:15:19;;;;;;;2.23;2.10;;;;;;;8.32;100.00;94259.53;4333590;32;20244;-61
2022/11/16 06:17:46;;;;;;;2.47;2.37;;;;;;;8.50;100.00;94264.66;4363521;32;20292;-61
2022/11/16 06:20:13;;;;;;;2.13;2.03;;;;;;;8.50;100.00;94254.06;4361829;32;20242;-60
2022/11/16 06:22:39;;;;;;;2.47;2.37;;;;;;;8.61;100.00;94255.34;4387127;32;20284;-60
2022/11/16 06:25:08;;;;;;;2.93;2.63;;;;;;;8.75;99.48;94251.78;4365665;32;20289;-60
2022/11/16 06:27:39;;;;;;;2.17;1.90;;;;;;;8.59;99.90;94256.72;4343157;32;20312;-60
2022/11/16 06:30:11;;;;;;;1.73;1.63;;;;;;;8.64;100.00;94253.94;4359712;32;20295;-60
2022/11/16 06:32:36;;;;;;;5.13;2.73;;;;;;;8.80;99.96;94255.06;4368751;32;20351;-60
2022/11/16 06:35:02;;;;;;;2.37;2.27;;;;;;;8.94;99.33;94255.72;4364119;32;20284;-61
2022/11/16 06:37:27;;;;;;;1.40;1.40;;;;;;;8.90;99.39;94249.50;4361898;32;20193;-60
2022/11/16 06:39:52;;;;;;;1.70;1.33;;;;;;;9.03;99.04;94257.59;4375772;32;20210;-59
2022/11/16 06:42:18;;;;;;;1.90;1.80;;;;;;;8.86;99.67;94253.06;4364572;32;20211;-60
2022/11/16 06:44:44;;;;;;;2.13;1.93;;;;;;;8.92;99.92;94255.28;4365070;32;20189;-61
2022/11/16 06:47:11;;;;;;;1.20;1.20;;;;;;;9.06;99.68;94252.47;4380895;32;20224;-60
2022/11/16 06:49:37;;;;;;;1.67;1.63;;;;;;;8.85;100.00;94257.56;4366990;32;20280;-60
2022/11/16 06:52:03;;;;;;;1.70;1.60;;;;;;;8.93;100.00;94251.53;4383361;32;20367;-60
2022/11/16 06:54:30;;;;;;;2.03;1.97;;;;;;;9.08;100.00;94250.31;4388610;32;20184;-60
2022/11/16 06:56:55;;;;;;;1.30;1.30;;;;;;;9.18;99.52;94249.22;4383569;32;20195;-60
2022/11/16 06:59:22;;;;;;;1.67;1.50;;;;;;;8.96;99.92;94248.25;4379606;32;20268;-60
2022/11/16 07:01:49;;;;;;;1.40;1.40;;;;;;;9.04;100.00;94254.66;4370305;32;20239;-60
2022/11/16 07:04:16;;;;;;;1.33;1.30;;;;;;;8.98;100.00;94253.22;4380652;32;20287;-60
2022/11/16 07:06:42;;;;;;;1.33;1.30;;;;;;;9.07;100.00;94247.97;4364792;32;20184;-60
2022/11/16 07:09:10;;;;;;;2.13;2.03;;;;;;;9.21;100.00;94248.59;4324473;32;20223;-60
2022/11/16 07:11:35;;;;;;;1.60;1.60;;;;;;;9.24;100.00;94248.75;4386303;32;20239;-60
2022/11/16 07:14:02;;;;;;;2.00;1.90;;;;;;;9.19;100.00;94250.75;4390924;32;20330;-61
2022/11/16 07:16:29;;;;;;;2.73;2.00;;;;;;;9.27;100.00;94252.66;4356293;32;20189;-61
2022/11/16 07:18:56;;;;;;;7.80;1.47;;;;;;;9.62;100.00;94245.47;4362557;32;20284;-61
2022/11/16 07:21:27;;;;;;;1.60;1.50;;;;;;;10.12;100.00;94245.69;4369448;32;20219;-62
2022/11/16 07:23:54;;;;;;;1.57;1.43;;;;;;;10.24;100.00;94243.19;4372406;32;20197;-62
2022/11/16 07:26:20;;;;;;;1.37;1.27;;;;;;;10.22;100.00;94239.28;4347360;32;23325;-62
2022/11/16 07:28:45;;;;;;;1.50;1.50;;;;;;;10.50;100.00;94243.09;4345718;32;20181;-62
2022/11/16 07:31:12;;;;;;;1.77;1.67;;;;;;;10.65;100.00;94233.81;4371780;32;20180;-62
2022/11/16 07:33:39;;;;;;;1.33;1.33;;;;;;;10.71;100.00;94235.19;4368579;32;20220;-62
2022/11/16 07:36:10;;;;;;;2.00;1.83;;;;;;;10.72;100.00;94246.56;4335541;32;20193;-62
2022/11/16 07:38:38;;;;;;;1.30;1.30;;;;;;;10.86;100.00;94242.56;4370390;32;20204;-62
2022/11/16 07:41:13;;;;;;;4.60;1.47;;;;;;;10.89;100.00;94244.59;4359355;32;20192;-62
2022/11/16 07:43:39;;;;;;;1.70;1.60;;;;;;;10.92;99.96;94240.53;4367968;32;20199;-62
2022/11/16 07:46:13;;;;;;;1.77;1.67;;;;;;;10.99;100.00;94252.19;4359375;32;20280;-61
2022/11/16 07:48:41;;;;;;;23.60;2.57;;;;;;;11.09;100.00;94244.94;4365442;32;20240;-55
2022/11/16 07:51:09;;;;;;;1.60;1.27;;;;;;;11.51;100.00;94251.81;4355672;32;20233;-55
2022/11/16 07:53:36;;;;;;;2.17;1.07;;;;;;;12.00;100.00;94252.81;4381716;32;20227;-54
2022/11/16 07:56:04;;;;;;;2.53;2.33;;;;;;;12.54;100.00;94254.56;4363748;32;20248;-54
2022/11/16 07:58:33;;;;;;;2.27;2.07;;;;;;;12.87;100.00;94241.16;4361667;32;20283;-51
2022/11/16 08:01:06;;;;;;;1.67;1.57;;;;;;;13.01;98.26;94250.34;4377783;32;20189;-53
2022/11/16 08:03:35;;;;;;;2.40;2.20;;;;;;;13.33;96.02;94256.63;4359300;32;20201;-54
2022/11/16 08:06:04;;;;;;;3.70;2.20;;;;;;;13.49;94.70;94258.62;4377955;32;20188;-56
2022/11/16 08:08:30;;;;;;;1.43;1.23;;;;;;;13.61;91.97;94256.69;4367014;32;20189;-56
2022/11/16 08:11:03;;;;;;;3.37;0.93;;;;;;;13.76;91.91;94261.28;4357803;32;20192;-53
2022/11/16 08:13:32;;;;;;;1.47;1.23;;;;;;;13.86;90.78;94254.72;4389196;32;20192;-56
2022/11/16 08:16:09;;;;;;;0.87;0.87;;;;;;;13.95;89.65;94267.88;4374107;32;20192;-54
2022/11/16 08:18:36;;;;;;;1.50;1.40;;;;;;;14.04;88.96;94263.19;4376589;32;20207;-54
2022/11/16 08:21:01;;;;;;;1.57;1.47;;;;;;;14.07;88.30;94259.84;4375777;32;20203;-55
2022/11/16 08:23:28;;;;;;;1.00;1.00;;;;;;;14.26;88.46;94261.84;4386070;32;20192;-55
2022/11/16 08:25:58;;;;;;;0.93;0.93;;;;;;;14.32;87.57;94265.81;4309197;32;20264;-55
2022/11/16 08:28:25;;;;;;;1.00;1.00;;;;;;;14.20;85.57;94257.88;4369402;32;20192;-56
2022/11/16 08:30:52;;;;;;;1.20;1.20;;;;;;;14.40;87.01;94268.34;4376066;32;20283;-54
2022/11/16 08:33:19;;;;;;;2.10;1.63;;;;;;;14.34;86.46;94267.00;4375022;32;20252;-55
2022/11/16 08:35:47;;;;;;;1.07;1.07;;;;;;;14.42;86.33;94274.12;4381822;32;20268;-53
2022/11/16 08:38:14;;;;;;;0.93;0.93;;;;;;;14.41;85.80;94275.22;4350952;32;20197;-53
2022/11/16 08:40:39;;;;;;;1.97;1.87;;;;;;;14.54;85.30;94267.94;4366843;32;20197;-55
2022/11/16 08:43:06;;;;;;;0.93;0.93;;;;;;;14.70;83.60;94274.06;4346238;32;20271;-52
2022/11/16 08:45:32;;;;;;;0.73;0.73;;;;;;;14.92;82.09;94270.00;4372361;32;20192;-57
2022/11/16 08:47:58;;;;;;;1.43;0.70;;;;;;;15.04;81.05;94271.78;4357825;32;20252;-51
2022/11/16 08:50:25;;;;;;;0.93;0.90;;;;;;;15.21;80.52;94268.72;4352349;32;20222;-54
2022/11/16 08:52:51;;;;;;;1.47;1.37;;;;;;;15.21;79.79;94273.31;4374093;32;20294;-56
2022/11/16 08:55:18;;;;;;;0.73;0.73;;;;;;;15.30;79.53;94265.88;4378676;32;20214;-54
2022/11/16 08:57:44;;;;;;;2.13;1.77;;;;;;;15.37;79.42;94272.16;4373109;32;20185;-52
2022/11/16 09:00:11;;;;;;;0.87;0.87;;;;;;;15.48;78.74;94267.03;4337465;32;20242;-55
2022/11/16 09:02:38;;;;;;;0.83;0.83;;;;;;;15.58;78.52;94269.19;4360655;32;20188;-53
2022/11/16 09:05:05;;;;;;;0.68;0.68;;;;;;;15.64;78.28;94272.34;4372275;32;20051;-52
2022/11/16 09:07:30;;;;;;;0.83;0.83;;;;;;;15.76;78.12;94273.00;4355901;32;20184;-56
2022/11/16 09:09:58;;;;;;;0.90;0.90;;;;;;;16.28;76.66;94268.25;4365678;32;20247;-53
2022/11/16 09:12:26;;;;;;;0.93;0.93;;;;;;;16.67;73.37;94275.09;4371413;32;20180;-51
2022/11/16 09:14:51;;;;;;;1.23;1.20;;;;;;;17.04;71.88;94274.53;4374835;32;20288;-51
2022/11/16 09:17:18;;;;;;;2.00;1.23;;;;;;;17.40;70.19;94281.97;4353336;32;20235;-55
2022/11/16 09:19:43;;;;;;;0.57;0.57;;;;;;;17.64;68.40;94277.31;4337336;32;20261;-57
2022/11/16 09:22:08;;;;;;;0.70;0.70;;;;;;;17.79;68.19;94279.84;4353515;32;20184;-57
2022/11/16 09:24:35;;;;;;;0.70;0.70;;;;;;;17.67;68.24;94285.41;4350508;32;20192;-57
2022/11/16 09:27:00;;;;;;;1.70;1.50;;;;;;;17.62;68.14;94280.34;4367871;32;20223;-57
2022/11/16 09:29:28;;;;;;;1.10;1.10;;;;;;;17.02;68.98;94290.97;4382054;32;20271;-59
2022/11/16 09:31:57;;;;;;;1.27;1.00;;;;;;;17.30;69.46;94287.94;4374688;32;20256;-56
2022/11/16 09:34:22;;;;;;;1.37;1.33;;;;;;;17.26;68.76;94289.00;4347950;32;20189;-55
2022/11/16 09:36:49;;;;;;;1.00;1.00;;;;;;;17.10;69.25;94291.84;4364074;32;20223;-58
2022/11/16 09:39:15;;;;;;;1.00;1.00;;;;;;;16.95;70.64;94292.75;4366480;32;20211;-57
2022/11/16 09:41:43;;;;;;;1.37;1.27;;;;;;;17.05;69.94;94292.91;4341289;32;20209;-56
2022/11/16 09:44:43;;;;;;;1.33;1.23;;;;;;;16.96;70.08;94289.72;4372413;32;20208;-58
2022/11/16 09:47:20;;;;;;;0.50;0.50;;;;;;;16.90;70.55;94296.50;4367875;32;20181;-56
2022/11/16 09:49:52;;;;;;;0.63;0.63;;;;;;;16.97;70.21;94302.00;4317551;32;20257;-59
2022/11/16 09:52:38;;;;;;;1.43;1.20;;;;;;;17.20;69.55;94299.28;4313832;32;20260;-62
2022/11/16 09:55:19;;;;;;;3.37;1.57;;;;;;;16.29;71.16;94294.66;4332943;32;20189;-62
2022/11/16 09:57:47;;;;;;;1.10;1.10;;;;;;;14.75;77.12;94303.19;4371914;32;20192;-65
2022/11/16 10:00:21;;;;;;;2.03;1.07;;;;;;;14.01;80.46;94306.53;4362025;32;20181;-64
2022/11/16 10:03:01;;;;;;;0.50;0.50;;;;;;;13.07;85.33;94302.28;4370987;32;20224;-65
2022/11/16 10:05:49;;;;;;;1.57;0.80;;;;;;;12.84;86.76;94306.47;4374274;32;20188;-64
2022/11/16 10:08:42;;;;;;;0.90;0.90;;;;;;;12.65;88.15;94306.25;4359017;32;20252;-65
2022/11/16 10:11:35;;;;;;;0.70;0.70;;;;;;;12.08;91.66;94300.87;4353228;32;20211;-65
2022/11/16 10:14:39;;;;;;;1.53;1.33;;;;;;;11.98;92.71;94299.44;4360536;32;20196;-64
2022/11/16 10:17:22;;;;;;;2.20;1.57;;;;;;;11.87;93.55;94293.72;4301545;32;20222;-64
2022/11/16 10:19:53;;;;;;;1.60;1.50;;;;;;;11.75;94.45;94304.28;4369668;32;20298;-61
2022/11/16 10:22:30;;;;;;;0.70;0.70;;;;;;;11.54;95.27;94300.84;4371964;32;20193;-62
2022/11/16 10:25:05;;;;;;;2.23;1.07;;;;;;;11.50;96.07;94297.28;4355805;32;20196;-63
2022/11/16 10:27:43;;;;;;;1.47;1.43;;;;;;;11.62;96.26;94298.13;4351026;32;20191;-61
2022/11/16 10:30:16;;;;;;;1.40;1.30;;;;;;;11.39;96.68;94298.78;4357418;32;20192;-63
2022/11/16 10:32:53;;;;;;;1.03;1.03;;;;;;;11.47;97.16;94296.03;4336599;32;20200;-61
2022/11/16 10:35:34;;;;;;;1.30;1.30;;;;;;;11.35;97.42;94296.00;4385502;32;20214;-62
2022/11/16 10:38:13;;;;;;;2.83;1.20;;;;;;;11.27;97.70;94294.94;4353902;32;20264;-62
2022/11/16 10:40:43;;;;;;;1.57;1.17;;;;;;;11.20;97.94;94288.59;4354961;32;20245;-61
2022/11/16 10:43:27;;;;;;;1.33;0.90;;;;;;;11.23;98.22;94293.25;4377252;32;20241;-63
2022/11/16 10:46:05;;;;;;;0.60;0.60;;;;;;;11.33;97.77;94290.22;4364511;32;20185;-64
2022/11/16 10:48:41;;;;;;;0.90;0.90;;;;;;;11.43;97.53;94289.06;4355151;32;20237;-63
2022/11/16 10:51:08;;;;;;;0.80;0.80;;;;;;;11.44;97.39;94298.56;4356462;32;20193;-63
2022/11/16 10:53:41;;;;;;;0.63;0.63;;;;;;;11.18;98.24;94294.22;4364836;32;20288;-66
2022/11/16 10:56:38;;;;;;;1.50;1.40;;;;;;;11.31;97.57;94285.22;4364337;32;20176;-62
2022/11/16 10:59:08;;;;;;;0.70;0.70;;;;;;;11.46;97.02;94291.84;4353311;32;20230;-63
2022/11/16 11:01:48;;;;;;;1.10;1.10;;;;;;;11.27;97.77;94284.31;4353761;32;20195;-64
2022/11/16 11:04:23;;;;;;;0.80;0.80;;;;;;;11.24;98.03;94289.47;4368186;32;20192;-65
2022/11/16 11:07:17;;;;;;;1.47;1.37;;;;;;;11.53;97.53;94286.78;4345234;32;20203;-61
2022/11/16 11:09:42;;;;;;;0.93;0.93;;;;;;;11.53;97.28;94278.81;4333902;32;20200;-61
2022/11/16 11:15:11;;;;;;;0.70;0.70;;;;;;;11.67;96.84;94276.66;4374999;32;20225;-63
2022/11/16 11:17:39;;;;;;;1.23;1.23;;;;;;;11.43;97.46;94276.53;4362802;32;20188;-61
2022/11/16 11:20:14;;;;;;;1.33;1.33;;;;;;;11.59;96.74;94272.22;4359490;32;20197;-63
2022/11/16 11:23:01;;;;;;;1.17;1.17;;;;;;;11.62;97.13;94271.56;4380742;32;20180;-64
2022/11/16 11:25:37;;;;;;;0.97;0.97;;;;;;;11.58;97.41;94273.31;4363949;32;20213;-64
2022/11/16 11:28:20;;;;;;;1.90;1.80;;;;;;;11.43;97.65;94270.47;4352751;32;20180;-64
2022/11/16 11:30:57;;;;;;;1.23;1.13;;;;;;;11.62;97.05;94273.47;4371963;32;20302;-64
2022/11/16 11:33:26;;;;;;;0.90;0.90;;;;;;;11.64;97.20;94269.34;4379011;32;20330;-64
2022/11/16 11:36:32;;;;;;;6.03;1.43;;;;;;;11.65;97.16;94270.91;4361587;32;20282;-63
2022/11/16 11:39:22;;;;;;;1.40;1.27;;;;;;;11.66;96.86;94275.13;4344145;32;20256;-64
2022/11/16 11:42:12;;;;;;;0.73;0.73;;;;;;;11.91;96.07;94268.06;4371509;32;20272;-64
2022/11/16 11:44:50;;;;;;;0.90;0.90;;;;;;;11.91;95.50;94265.41;4362912;32;20188;-64
2022/11/16 11:47:34;;;;;;;1.33;0.93;;;;;;;11.89;95.91;94270.25;4361576;32;20193;-64
2022/11/16 11:50:13;;;;;;;0.80;0.80;;;;;;;12.00;95.50;94262.66;4374645;32;20183;-64
2022/11/16 11:52:55;;;;;;;0.97;0.97;;;;;;;11.97;96.17;94260.66;4366306;32;20216;-64
2022/11/16 11:55:20;;;;;;;1.10;1.10;;;;;;;12.00;95.08;94275.97;4344795;32;20335;-64
2022/11/16 11:57:52;;;;;;;0.90;0.90;;;;;;;11.91;95.06;94270.72;4343554;32;20376;-66
2022/11/16 12:00:19;;;;;;;1.20;1.20;;;;;;;11.94;95.44;94278.03;4367172;32;20180;-65
2022/11/16 12:02:50;;;;;;;0.90;0.90;;;;;;;11.59;96.21;94277.53;4344656;32;20204;-64
2022/11/16 12:05:33;;;;;;;1.03;1.03;;;;;;;11.89;95.50;94282.78;4365622;32;20189;-64
2022/11/16 12:08:37;;;;;;;4.93;1.03;;;;;;;11.80;96.12;94284.75;4380457;32;20240;-64
2022/11/16 12:11:30;;;;;;;1.20;0.73;;;;;;;11.84;96.20;94275.03;4328881;32;20243;-64
2022/11/16 12:14:16;;;;;;;1.40;1.07;;;;;;;11.97;95.17;94265.97;4356052;32;20189;-64
2022/11/16 12:17:16;;;;;;;1.53;1.43;;;;;;;12.05;94.64;94270.44;4356224;32;20180;-63
2022/11/16 12:20:11;;;;;;;1.97;1.87;;;;;;;12.01;95.37;94267.66;4351210;32;20184;-64
2022/11/16 12:23:30;;;;;;;0.87;0.87;;;;;;;12.04;95.15;94271.53;4354144;32;20197;-64
2022/11/16 12:26:22;;;;;;;1.40;1.40;;;;;;;12.07;94.64;94265.53;4335499;32;20250;-63
2022/11/16 12:29:25;;;;;;;0.70;0.70;;;;;;;12.13;93.64;94263.47;4360467;32;20203;-61
2022/11/16 12:32:28;;;;;;;0.80;0.80;;;;;;;11.99;94.13;94264.53;4368422;32;20318;-62
2022/11/16 12:35:43;;;;;;;0.93;0.93;;;;;;;11.89;94.32;94261.50;4346949;32;20250;-63
2022/11/16 12:38:44;;;;;;;1.07;1.03;;;;;;;11.82;93.78;94258.62;4356714;32;20232;-62
2022/11/16 12:41:38;;;;;;;0.53;0.53;;;;;;;11.99;93.24;94256.56;4349763;32;20251;-63